Carnival Triumph — C6FN5 — position and weather

sailwx.info

Track history (hours):
 
Tides and Currents Weather Stations Pressure Air Temp Water Temp Dewpoint Dewpoint Depression Visibility Wind Speed Wind Dir Waves Ship Positions

Carnival Triumph

Operator: Carnival Cruise Lines

Last reported at 2014-Sep-27 21:29 UTC. Time now 2014-Oct-01 14:30 UTC.
Position N 29°20' W 094°47'.

Type: Ship. MMSI: 308045000.

Date/timePositionNaut miles runAvg speedWind from/ knotsBaromVisibWave heightAir tempDewpointWater temp
2014-Sep-27 21:29N 29°20' W 094°47'1 0.4
2014-Sep-27 18:23N 29°19' W 094°48'0 0.0
2014-Sep-27 17:29N 29°19' W 094°48'0 0.0
2014-Sep-27 16:29N 29°19' W 094°48'0 0.0
2014-Sep-27 15:29N 29°19' W 094°48'0 0.0
2014-Sep-27 14:29N 29°19' W 094°48'0 0.0
2014-Sep-27 13:26N 29°19' W 094°48'  
2014-Sep-22 23:16N 29°20' W 094°41'6 0.6
2014-Sep-22 13:13N 29°19' W 094°48'6 9.7
2014-Sep-22 12:33N 29°20' W 094°41'  
2014-Sep-18 22:15N 29°21' W 094°42'5 2.8
2014-Sep-18 20:24N 29°19' W 094°48'0 0.0
2014-Sep-18 14:12N 29°19' W 094°48'  
Track history (hours):
 
Tides and Currents Weather Stations Pressure Air Temp Water Temp Dewpoint Dewpoint Depression Visibility Wind Speed Wind Dir Waves Ship Positions

Carnival Triumph

Operator: Carnival Cruise Lines

Last reported at 2014-Sep-27 21:29 UTC. Time now 2014-Oct-01 14:30 UTC.
Position N 29°20' W 094°47'.

Type: Ship. MMSI: 308045000.

Date/timePositionNaut miles runAvg speedWind from/ knotsBaromVisibWave heightAir tempDewpointWater temp
2014-Sep-27 21:29N 29°20' W 094°47'1 0.4
2014-Sep-27 18:23N 29°19' W 094°48'0 0.0
2014-Sep-27 17:29N 29°19' W 094°48'0 0.0
2014-Sep-27 16:29N 29°19' W 094°48'0 0.0
2014-Sep-27 15:29N 29°19' W 094°48'0 0.0
2014-Sep-27 14:29N 29°19' W 094°48'0 0.0
2014-Sep-27 13:26N 29°19' W 094°48'  
2014-Sep-22 23:16N 29°20' W 094°41'6 0.6
2014-Sep-22 13:13N 29°19' W 094°48'6 9.7
2014-Sep-22 12:33N 29°20' W 094°41'  
2014-Sep-18 22:15N 29°21' W 094°42'5 2.8
2014-Sep-18 20:24N 29°19' W 094°48'0 0.0
2014-Sep-18 14:12N 29°19' W 094°48'  

Dump ship's entire track history